Time;durP1;ratioP1;P1;durP2;ratioP2;P2;SDS_P1;SDS_P2;PMS_P1;PMS_P2;Temp;Humidity;BMP_temperature;BMP_pressure;BME280_temperature;BME280_humidity;BME280_pressure;Samples;Min_cycle;Max_cycle;Signal;HPM_P1;HPM_P2
2021/04/11 00:01:40;;;;;;;1.70;1.30;;;11.10;98.00;;;;;;5074609;28;20464;-73
2021/04/11 00:04:07;;;;;;;1.63;1.43;;;11.00;98.00;;;;;;5071936;28;20496;-73
2021/04/11 00:06:34;;;;;;;2.37;1.20;;;10.90;98.00;;;;;;5074624;28;20456;-73
2021/04/11 00:09:02;;;;;;;1.67;1.17;;;10.80;98.00;;;;;;5072066;28;20461;-73
2021/04/11 00:11:29;;;;;;;1.30;1.20;;;10.80;98.00;;;;;;5074668;28;20460;-73
2021/04/11 00:13:56;;;;;;;1.53;1.20;;;10.80;98.00;;;;;;5072010;28;20465;-73
2021/04/11 00:16:23;;;;;;;1.43;1.07;;;10.80;98.00;;;;;;5073151;28;20453;-73
2021/04/11 00:18:50;;;;;;;1.87;1.40;;;10.70;98.00;;;;;;5071659;28;20458;-73
2021/04/11 00:21:17;;;;;;;1.53;1.30;;;10.60;98.00;;;;;;5074376;28;20462;-73
2021/04/11 00:23:44;;;;;;;1.20;1.10;;;10.60;98.00;;;;;;5070155;28;20491;-73
2021/04/11 00:26:12;;;;;;;1.30;1.10;;;10.70;98.00;;;;;;5074057;28;20851;-73
2021/04/11 00:28:38;;;;;;;1.80;1.30;;;10.80;98.00;;;;;;5071412;28;20465;-73
2021/04/11 00:31:05;;;;;;;1.23;1.07;;;10.80;98.00;;;;;;5074035;28;20514;-73
2021/04/11 00:33:35;;;;;;;1.30;1.13;;;10.80;98.00;;;;;;5071526;28;20484;-73
2021/04/11 00:36:06;;;;;;;1.60;1.40;;;10.70;98.00;;;;;;5073931;28;20447;-73
2021/04/11 00:38:33;;;;;;;1.73;1.30;;;10.80;98.00;;;;;;5071181;28;20808;-73
2021/04/11 00:41:04;;;;;;;1.83;1.57;;;10.60;98.00;;;;;;5073593;28;20507;-73
2021/04/11 00:43:32;;;;;;;1.20;1.00;;;10.40;98.00;;;;;;5070871;28;20840;-74
2021/04/11 00:46:07;;;;;;;1.30;1.20;;;10.30;98.00;;;;;;5073492;28;20462;-73
2021/04/11 00:48:35;;;;;;;1.60;1.30;;;10.30;98.00;;;;;;5070734;28;20462;-73
2021/04/11 00:51:07;;;;;;;2.00;1.30;;;10.20;98.00;;;;;;5073501;28;20941;-74
2021/04/11 00:53:34;;;;;;;1.40;1.30;;;10.20;98.00;;;;;;5070613;28;20466;-73
2021/04/11 00:56:02;;;;;;;1.57;1.53;;;10.20;98.00;;;;;;5073614;28;20456;-73
2021/04/11 00:58:30;;;;;;;1.37;1.07;;;10.30;98.00;;;;;;5070889;28;20456;-73
2021/04/11 01:00:59;;;;;;;1.63;1.30;;;10.40;98.00;;;;;;5072774;28;20494;-73
2021/04/11 01:03:28;;;;;;;1.30;1.20;;;10.50;98.00;;;;;;5070635;28;20456;-73
2021/04/11 01:05:56;;;;;;;2.90;2.20;;;10.40;98.00;;;;;;5073428;28;20460;-73
2021/04/11 01:08:26;;;;;;;1.50;1.30;;;10.20;98.00;;;;;;5070734;28;20460;-73
2021/04/11 01:10:59;;;;;;;1.20;1.00;;;10.00;98.00;;;;;;5073487;28;20472;-73
2021/04/11 01:13:26;;;;;;;1.20;1.00;;;9.80;98.00;;;;;;5070029;28;20470;-73
2021/04/11 01:15:53;;;;;;;2.13;1.30;;;9.70;98.00;;;;;;5071987;28;20826;-73
2021/04/11 01:18:21;;;;;;;1.20;1.00;;;9.70;98.00;;;;;;5069798;28;20986;-73
2021/04/11 01:20:49;;;;;;;1.47;1.23;;;9.80;98.00;;;;;;5073050;28;20996;-73
2021/04/11 01:23:40;;;;;;;1.40;1.20;;;9.70;98.00;;;;;;5068608;28;20506;-73
2021/04/11 01:26:08;;;;;;;1.20;1.00;;;9.60;98.00;;;;;;5072500;28;20463;-73
2021/04/11 01:28:37;;;;;;;1.20;1.00;;;9.70;98.00;;;;;;5069837;28;20884;-73
2021/04/11 01:31:05;;;;;;;5.27;2.00;;;9.70;98.00;;;;;;5071158;28;20550;-73
2021/04/11 01:33:35;;;;;;;1.40;1.20;;;9.70;98.00;;;;;;5070049;28;20540;-73
2021/04/11 01:36:04;;;;;;;1.20;1.00;;;9.60;98.00;;;;;;5071354;28;20544;-73
2021/04/11 01:38:31;;;;;;;1.20;1.10;;;9.80;98.00;;;;;;5069798;28;20829;-73
2021/04/11 01:41:05;;;;;;;1.40;1.40;;;9.80;98.00;;;;;;5072886;28;20480;-73
2021/04/11 01:43:35;;;;;;;1.20;1.00;;;9.60;98.00;;;;;;5070544;28;20464;-73
2021/04/11 01:46:02;;;;;;;1.20;1.00;;;9.70;98.00;;;;;;5072760;28;20453;-73
2021/04/11 01:48:36;;;;;;;2.40;1.10;;;9.80;98.00;;;;;;5070044;28;20471;-73
2021/04/11 01:51:04;;;;;;;1.20;1.00;;;9.90;98.00;;;;;;5072396;28;20508;-74
2021/04/11 01:53:31;;;;;;;1.87;1.40;;;9.90;98.00;;;;;;5069698;28;20950;-74
2021/04/11 01:55:59;;;;;;;2.07;1.20;;;9.90;98.00;;;;;;5072301;28;20526;-73
2021/04/11 01:58:28;;;;;;;1.20;1.07;;;9.80;98.00;;;;;;5069834;28;20469;-73
2021/04/11 02:01:08;;;;;;;3.00;1.50;;;9.70;98.00;;;;;;5072228;28;20973;-73
2021/04/11 02:03:34;;;;;;;1.20;1.10;;;9.70;98.00;;;;;;5069789;28;20829;-73
2021/04/11 02:06:04;;;;;;;1.20;1.00;;;9.80;98.00;;;;;;5072245;28;20862;-73
2021/04/11 02:08:32;;;;;;;1.30;1.10;;;9.80;98.00;;;;;;5069457;28;20455;-73
2021/04/11 02:11:00;;;;;;;1.20;1.10;;;9.90;98.00;;;;;;5072059;28;20455;-73
2021/04/11 02:13:29;;;;;;;1.20;1.00;;;10.00;98.00;;;;;;5068717;28;20456;-73
2021/04/11 02:15:58;;;;;;;1.20;1.20;;;10.00;98.00;;;;;;5071999;28;20458;-73
2021/04/11 02:18:26;;;;;;;1.20;1.10;;;10.00;98.00;;;;;;5069699;28;20823;-73
2021/04/11 02:20:57;;;;;;;1.20;1.00;;;9.90;98.00;;;;;;5071872;28;20484;-73
2021/04/11 02:23:25;;;;;;;1.20;1.00;;;9.90;98.00;;;;;;5069256;28;20480;-74
2021/04/11 02:25:54;;;;;;;1.20;0.90;;;9.90;98.00;;;;;;5071745;28;20456;-73
2021/04/11 02:28:25;;;;;;;1.30;1.10;;;10.00;98.00;;;;;;5069541;28;20825;-74
2021/04/11 02:30:55;;;;;;;1.40;1.23;;;10.00;98.00;;;;;;5071739;28;20830;-73
2021/04/11 02:33:23;;;;;;;1.70;1.10;;;10.00;98.00;;;;;;5068911;28;20449;-73
2021/04/11 02:35:51;;;;;;;1.30;1.20;;;10.10;98.00;;;;;;5071536;28;20461;-73
2021/04/11 02:38:20;;;;;;;1.20;1.00;;;10.00;98.00;;;;;;5069268;28;20506;-74
2021/04/11 02:40:52;;;;;;;1.20;1.00;;;10.00;98.00;;;;;;5071680;28;20995;-73
2021/04/11 02:43:19;;;;;;;1.87;1.37;;;10.10;98.00;;;;;;5068530;28;20531;-73
2021/04/11 02:45:47;;;;;;;1.20;1.20;;;10.00;98.00;;;;;;5071756;28;20451;-74
2021/04/11 02:48:15;;;;;;;2.70;1.40;;;10.10;98.00;;;;;;5069567;28;20946;-73
2021/04/11 02:50:43;;;;;;;1.20;1.10;;;10.10;98.00;;;;;;5071444;28;20456;-73
2021/04/11 02:53:19;;;;;;;1.20;1.00;;;10.00;98.00;;;;;;5069496;28;20460;-74
2021/04/11 02:55:47;;;;;;;2.70;1.57;;;10.00;98.00;;;;;;5071387;28;20474;-73
2021/04/11 02:58:17;;;;;;;2.17;1.60;;;10.00;98.00;;;;;;5069246;28;21012;-74
2021/04/11 03:00:47;;;;;;;2.43;1.50;;;9.90;98.00;;;;;;5071319;28;20484;-73
2021/04/11 03:03:14;;;;;;;1.50;1.23;;;9.80;98.00;;;;;;5068973;28;20470;-73
2021/04/11 03:05:42;;;;;;;1.20;1.03;;;9.80;98.00;;;;;;5071215;28;20453;-73
2021/04/11 03:08:14;;;;;;;1.20;1.00;;;9.80;98.00;;;;;;5068853;28;20955;-73
2021/04/11 03:10:48;;;;;;;1.20;1.10;;;9.90;98.00;;;;;;5070036;28;20460;-73
2021/04/11 03:13:40;;;;;;;1.23;1.07;;;10.00;98.00;;;;;;5068656;28;20459;-73
2021/04/11 03:16:07;;;;;;;1.30;1.20;;;10.00;98.00;;;;;;5071196;28;20486;-73
2021/04/11 03:18:36;;;;;;;1.20;1.10;;;10.10;98.00;;;;;;5067280;28;20457;-73
2021/04/11 03:21:05;;;;;;;1.63;1.43;;;10.20;98.00;;;;;;5069665;28;20479;-73
2021/04/11 03:23:33;;;;;;;1.43;1.30;;;10.20;98.00;;;;;;5068543;28;20462;-73
2021/04/11 03:26:05;;;;;;;1.40;1.37;;;10.10;98.00;;;;;;5074916;28;20463;-73
2021/04/11 03:28:36;;;;;;;1.40;1.00;;;9.90;98.00;;;;;;5073196;28;20473;-73
2021/04/11 03:31:07;;;;;;;1.20;1.00;;;9.80;98.00;;;;;;5075153;28;20860;-73
2021/04/11 03:33:39;;;;;;;1.83;1.30;;;9.70;98.00;;;;;;5072729;28;20456;-74
2021/04/11 03:36:08;;;;;;;1.20;1.10;;;9.60;98.00;;;;;;5075235;28;20488;-73
2021/04/11 03:38:36;;;;;;;1.30;1.10;;;9.60;98.00;;;;;;5072117;28;20466;-74
2021/04/11 03:41:03;;;;;;;1.50;1.30;;;9.60;98.00;;;;;;5075006;28;20534;-74
2021/04/11 03:43:37;;;;;;;1.30;1.10;;;9.70;98.00;;;;;;5072789;28;20950;-74
2021/04/11 03:46:09;;;;;;;1.83;1.50;;;9.60;98.00;;;;;;5075153;28;20475;-73
2021/04/11 03:48:41;;;;;;;1.40;1.30;;;9.70;98.00;;;;;;5071983;28;20460;-74
2021/04/11 03:51:15;;;;;;;2.00;1.57;;;9.70;98.00;;;;;;5074959;28;20453;-73
2021/04/11 03:53:47;;;;;;;1.60;1.10;;;9.60;98.00;;;;;;5072370;28;20465;-73
2021/04/11 03:56:18;;;;;;;1.33;1.30;;;9.70;98.00;;;;;;5073254;28;20492;-73
2021/04/11 03:58:47;;;;;;;1.43;1.07;;;9.80;98.00;;;;;;5072083;28;20481;-73
2021/04/11 04:01:18;;;;;;;1.77;1.27;;;9.90;98.00;;;;;;5074462;28;20492;-73
2021/04/11 04:03:47;;;;;;;1.20;1.10;;;10.00;98.00;;;;;;5072445;28;20480;-73
2021/04/11 04:06:20;;;;;;;1.60;1.40;;;10.00;98.00;;;;;;5074503;28;20460;-73
2021/04/11 04:08:47;;;;;;;1.70;1.10;;;10.00;98.00;;;;;;5070842;28;20469;-74
2021/04/11 04:11:22;;;;;;;1.63;1.30;;;10.00;98.00;;;;;;5074485;28;20452;-73
2021/04/11 04:14:01;;;;;;;1.50;1.20;;;10.20;98.00;;;;;;5072297;28;20821;-73
2021/04/11 04:16:44;;;;;;;1.77;1.30;;;10.10;98.00;;;;;;5074128;28;20449;-73
2021/04/11 04:19:32;;;;;;;1.40;1.13;;;10.10;98.00;;;;;;5071372;28;20448;-73
2021/04/11 04:22:12;;;;;;;1.77;1.50;;;10.20;98.00;;;;;;5074112;28;20514;-74
2021/04/11 04:24:47;;;;;;;1.50;1.43;;;10.30;98.00;;;;;;5071438;28;20475;-74
2021/04/11 04:27:32;;;;;;;1.20;1.00;;;10.30;98.00;;;;;;5072699;28;20469;-73
2021/04/11 04:30:16;;;;;;;1.30;1.03;;;10.20;98.00;;;;;;5071829;28;20533;-73
2021/04/11 04:33:13;;;;;;;1.57;1.40;;;10.20;98.00;;;;;;5073846;28;20945;-73
2021/04/11 04:35:45;;;;;;;1.20;1.00;;;9.90;98.00;;;;;;5070438;28;20985;-73
2021/04/11 04:38:19;;;;;;;1.30;1.23;;;9.80;98.00;;;;;;5074094;28;20502;-73
2021/04/11 04:40:59;;;;;;;1.40;1.20;;;9.90;98.00;;;;;;5074076;28;20544;-73
2021/04/11 04:43:55;;;;;;;1.20;1.00;;;10.10;98.00;;;;;;5071186;28;20459;-74
2021/04/11 04:46:33;;;;;;;1.53;1.47;;;10.10;98.00;;;;;;5073701;28;20562;-74
2021/04/11 04:49:08;;;;;;;1.20;1.00;;;10.20;98.00;;;;;;5071076;28;20464;-73
2021/04/11 04:51:40;;;;;;;1.30;1.20;;;10.00;98.00;;;;;;5073826;28;20964;-74
2021/04/11 04:54:16;;;;;;;1.53;1.30;;;10.00;98.00;;;;;;5070895;28;20472;-73
2021/04/11 04:56:48;;;;;;;1.30;1.20;;;9.90;98.00;;;;;;5073386;28;20468;-73
2021/04/11 04:59:19;;;;;;;1.20;1.00;;;9.80;98.00;;;;;;5070616;28;20549;-73
2021/04/11 05:01:49;;;;;;;1.20;1.03;;;9.70;98.00;;;;;;5072137;28;20460;-73
2021/04/11 05:04:20;;;;;;;1.53;1.53;;;9.60;98.00;;;;;;5070981;28;21102;-74
2021/04/11 05:06:54;;;;;;;1.77;1.33;;;9.60;98.00;;;;;;5073432;28;20943;-73
2021/04/11 05:09:24;;;;;;;1.20;1.00;;;9.60;98.00;;;;;;5070654;28;20458;-73
2021/04/11 05:11:58;;;;;;;1.30;1.10;;;9.60;98.00;;;;;;5073406;28;20459;-73
2021/04/11 05:14:29;;;;;;;3.27;1.37;;;9.70;98.00;;;;;;5070530;28;20457;-74
2021/04/11 05:17:01;;;;;;;2.03;1.33;;;9.70;98.00;;;;;;5072825;28;20449;-73
2021/04/11 05:19:33;;;;;;;1.20;1.10;;;9.70;98.00;;;;;;5070870;28;20862;-73
2021/04/11 05:22:05;;;;;;;1.20;1.10;;;9.80;98.00;;;;;;5073167;28;20467;-74
2021/04/11 05:24:38;;;;;;;1.40;1.13;;;9.90;98.00;;;;;;5070455;28;20455;-73
2021/04/11 05:27:10;;;;;;;1.40;1.10;;;9.90;98.00;;;;;;5073233;28;20468;-73
2021/04/11 05:29:44;;;;;;;1.40;1.30;;;10.00;98.00;;;;;;5070364;28;20934;-73
2021/04/11 05:32:12;;;;;;;1.50;1.47;;;10.00;98.00;;;;;;5073134;28;20458;-73
2021/04/11 05:34:39;;;;;;;1.30;1.10;;;9.90;98.00;;;;;;5070577;28;20456;-73
2021/04/11 05:37:20;;;;;;;1.60;1.10;;;9.90;98.00;;;;;;5073018;28;20954;-74
2021/04/11 05:39:49;;;;;;;1.53;1.47;;;9.90;98.00;;;;;;5069971;28;20558;-73
2021/04/11 05:42:26;;;;;;;1.40;1.40;;;9.90;98.00;;;;;;5072695;28;20456;-73
2021/04/11 05:44:58;;;;;;;1.70;1.60;;;9.90;98.00;;;;;;5070146;28;20463;-73
2021/04/11 05:47:36;;;;;;;1.47;1.10;;;10.00;98.00;;;;;;5072348;28;20456;-73
2021/04/11 05:50:07;;;;;;;1.20;0.97;;;10.10;98.00;;;;;;5069522;28;20866;-73
2021/04/11 05:52:46;;;;;;;8.53;1.20;;;10.30;98.00;;;;;;5072340;28;20469;-74
2021/04/11 05:55:14;;;;;;;6.40;1.27;;;10.30;98.00;;;;;;5069577;28;20940;-73
2021/04/11 05:57:51;;;;;;;1.60;1.47;;;10.20;98.00;;;;;;5072532;28;20517;-74
2021/04/11 06:00:24;;;;;;;1.20;1.00;;;10.20;98.00;;;;;;5069620;28;21168;-74
2021/04/11 06:02:55;;;;;;;1.40;1.33;;;10.20;98.00;;;;;;5072147;28;21037;-74
2021/04/11 06:05:28;;;;;;;1.30;1.23;;;10.20;98.00;;;;;;5069470;28;20451;-75
2021/04/11 06:08:00;;;;;;;1.80;1.30;;;10.40;98.00;;;;;;5072105;28;20463;-73
2021/04/11 06:10:35;;;;;;;1.30;1.00;;;10.40;98.00;;;;;;5069462;28;20813;-72
2021/04/11 06:13:05;;;;;;;1.40;1.27;;;10.50;98.00;;;;;;5072026;28;20451;-73
2021/04/11 06:15:37;;;;;;;1.90;1.50;;;10.60;98.00;;;;;;5069712;28;20542;-73
2021/04/11 06:18:08;;;;;;;1.40;1.30;;;10.70;98.00;;;;;;5071952;28;20501;-73
2021/04/11 06:20:36;;;;;;;1.50;1.20;;;10.90;98.00;;;;;;5051736;28;20537;-73
2021/04/11 06:23:13;;;;;;;3.10;1.40;;;10.90;98.00;;;;;;5072027;28;20477;-73
2021/04/11 06:25:47;;;;;;;1.47;1.33;;;10.80;98.00;;;;;;5068951;28;20506;-73
2021/04/11 06:28:21;;;;;;;1.40;1.30;;;10.90;98.00;;;;;;5071921;28;20483;-73
2021/04/11 06:30:56;;;;;;;1.70;1.30;;;10.90;98.00;;;;;;5068111;28;20478;-71
2021/04/11 06:33:26;;;;;;;2.30;1.27;;;11.00;98.00;;;;;;5071619;28;20452;-72
2021/04/11 06:35:57;;;;;;;1.30;1.23;;;11.00;98.00;;;;;;5068704;28;20494;-72
2021/04/11 06:38:27;;;;;;;1.80;1.50;;;11.00;98.00;;;;;;5071674;28;20467;-73
2021/04/11 06:41:10;;;;;;;2.13;1.73;;;11.10;98.00;;;;;;5068031;28;21346;-73
2021/04/11 06:44:07;;;;;;;1.30;1.23;;;11.20;98.00;;;;;;5068497;28;20453;-72
2021/04/11 06:46:45;;;;;;;1.40;1.10;;;11.40;98.00;;;;;;5071539;28;20460;-73
2021/04/11 06:49:30;;;;;;;1.87;1.23;;;11.50;98.00;;;;;;5068665;28;20458;-72
2021/04/11 06:52:23;;;;;;;1.20;1.00;;;11.80;98.00;;;;;;5071347;28;21085;-72
2021/04/11 06:55:02;;;;;;;1.40;1.20;;;11.90;98.00;;;;;;5066923;28;20489;-72
2021/04/11 06:57:48;;;;;;;1.37;1.17;;;11.90;98.00;;;;;;5071595;28;20551;-72
2021/04/11 07:00:23;;;;;;;1.20;1.10;;;12.10;98.00;;;;;;5068211;28;20484;-72
2021/04/11 07:03:29;;;;;;;1.20;1.20;;;12.10;98.00;;;;;;5071551;28;20571;-72
2021/04/11 07:06:45;;;;;;;1.40;1.37;;;12.00;98.00;;;;;;5069640;28;20458;-72
2021/04/11 07:09:50;;;;;;;1.97;1.43;;;11.90;98.00;;;;;;5068840;28;20458;-72
2021/04/11 07:12:59;;;;;;;2.17;1.70;;;12.10;98.00;;;;;;5070462;28;20463;-69
2021/04/11 07:15:54;;;;;;;1.20;1.10;;;12.20;98.00;;;;;;5059976;28;20866;-72
2021/04/11 07:18:45;;;;;;;1.80;1.53;;;12.20;98.00;;;;;;5063870;28;20474;-70
2021/04/11 07:21:50;;;;;;;1.57;1.10;;;12.40;98.00;;;;;;5070621;28;20489;-70
2021/04/11 07:24:42;;;;;;;1.20;1.00;;;12.60;98.00;;;;;;5068223;28;20838;-71
2021/04/11 07:27:20;;;;;;;1.20;1.00;;;12.80;98.00;;;;;;5070443;28;20461;-71
2021/04/11 07:30:06;;;;;;;1.77;1.20;;;13.00;98.00;;;;;;5067478;28;20507;-70
2021/04/11 07:33:00;;;;;;;1.20;1.03;;;13.20;98.00;;;;;;5070466;28;20545;-70
2021/04/11 07:35:41;;;;;;;2.07;1.50;;;13.40;98.00;;;;;;5067567;28;20449;-70
2021/04/11 07:38:29;;;;;;;1.40;1.27;;;13.50;98.00;;;;;;5069160;28;20971;-69
2021/04/11 07:41:14;;;;;;;3.30;1.70;;;13.50;98.00;;;;;;5067137;28;20522;-69
2021/04/11 07:44:07;;;;;;;2.00;1.40;;;13.40;98.00;;;;;;5067483;28;20935;-69
2021/04/11 07:46:51;;;;;;;1.30;1.13;;;13.30;98.00;;;;;;5069474;28;20454;-69
2021/04/11 07:49:45;;;;;;;1.67;1.17;;;13.40;98.00;;;;;;5067837;28;20536;-69
2021/04/11 07:52:49;;;;;;;1.50;1.10;;;13.60;98.00;;;;;;5070718;28;20485;-69
2021/04/11 07:55:25;;;;;;;1.20;1.10;;;13.70;98.00;;;;;;5036579;28;20489;-69
2021/04/11 07:58:29;;;;;;;1.20;1.10;;;13.90;98.00;;;;;;5070355;28;20498;-70
2021/04/11 08:01:18;;;;;;;1.20;1.00;;;14.00;97.40;;;;;;5067367;28;20863;-70
2021/04/11 08:04:19;;;;;;;1.87;1.30;;;14.10;98.00;;;;;;5068082;28;20459;-69
2021/04/11 08:07:08;;;;;;;2.23;1.63;;;14.30;97.30;;;;;;5017763;28;20818;-70
2021/04/11 08:09:49;;;;;;;1.40;1.30;;;14.20;97.70;;;;;;5065029;28;20467;-70
2021/04/11 08:12:52;;;;;;;1.20;1.10;;;14.20;97.90;;;;;;5073935;28;20492;-70
2021/04/11 08:15:26;;;;;;;4.40;1.90;;;14.20;98.00;;;;;;5070275;28;20547;-71
2021/04/11 08:18:02;;;;;;;1.40;1.10;;;14.30;98.00;;;;;;5073910;28;20448;-70
2021/04/11 08:21:14;;;;;;;1.20;1.00;;;14.50;98.00;;;;;;5071162;28;20485;-70
2021/04/11 08:24:04;;;;;;;3.73;1.83;;;14.60;97.00;;;;;;5071974;28;20963;-70
2021/04/11 08:26:59;;;;;;;1.70;1.40;;;14.80;97.40;;;;;;5073400;28;20479;-70
2021/04/11 08:30:03;;;;;;;1.57;1.20;;;14.90;97.30;;;;;;5071285;28;20872;-71
2021/04/11 08:33:11;;;;;;;1.37;1.33;;;15.10;96.10;;;;;;5073634;28;20470;-70
2021/04/11 08:36:06;;;;;;;1.57;1.50;;;15.20;95.20;;;;;;5070448;28;20820;-71
2021/04/11 08:38:57;;;;;;;7.07;1.30;;;15.40;95.50;;;;;;5073604;28;20462;-71
2021/04/11 08:41:55;;;;;;;1.20;1.10;;;15.60;91.40;;;;;;5073587;28;20492;-70
2021/04/11 08:44:39;;;;;;;1.30;1.20;;;15.80;93.50;;;;;;5070304;28;20457;-71
2021/04/11 08:47:17;;;;;;;1.20;1.10;;;15.90;89.80;;;;;;5073299;28;20494;-71
2021/04/11 08:49:51;;;;;;;1.20;1.00;;;16.00;86.40;;;;;;5071065;28;20533;-69
2021/04/11 08:52:32;;;;;;;1.60;1.30;;;16.10;86.30;;;;;;5072043;28;20461;-69
2021/04/11 08:55:05;;;;;;;3.10;1.43;;;16.20;89.30;;;;;;5070469;28;20460;-70
2021/04/11 08:57:56;;;;;;;1.20;1.20;;;16.20;88.20;;;;;;5073002;28;20457;-71
2021/04/11 09:00:28;;;;;;;1.30;1.10;;;16.20;87.40;;;;;;5070788;28;20483;-70
2021/04/11 09:03:12;;;;;;;1.30;1.30;;;16.30;88.10;;;;;;5073014;28;20468;-71
2021/04/11 09:05:53;;;;;;;1.50;1.20;;;16.50;86.30;;;;;;5070221;28;20492;-70
2021/04/11 09:08:29;;;;;;;1.47;1.20;;;16.50;85.90;;;;;;5073076;28;20456;-71
2021/04/11 09:11:20;;;;;;;1.40;1.10;;;16.50;84.00;;;;;;5069756;28;21001;-70
2021/04/11 09:14:04;;;;;;;1.90;1.17;;;16.60;81.60;;;;;;5066278;28;20465;-71
2021/04/11 09:16:43;;;;;;;1.20;1.00;;;16.60;81.70;;;;;;5072240;28;20459;-71
2021/04/11 09:19:26;;;;;;;1.20;1.00;;;16.70;81.90;;;;;;5069636;28;20461;-70
2021/04/11 09:22:21;;;;;;;1.43;1.20;;;16.70;81.70;;;;;;5070711;28;20978;-70
2021/04/11 09:24:53;;;;;;;1.40;1.20;;;16.70;79.60;;;;;;5069720;28;20469;-70
2021/04/11 09:27:47;;;;;;;1.20;1.00;;;16.60;80.10;;;;;;5072241;28;20453;-69
2021/04/11 09:30:30;;;;;;;1.27;1.13;;;16.70;80.70;;;;;;5069500;28;20468;-71
2021/04/11 09:33:14;;;;;;;1.20;1.10;;;16.80;80.40;;;;;;5071890;28;20456;-71
2021/04/11 09:35:46;;;;;;;1.20;1.00;;;16.70;80.70;;;;;;5069815;28;20460;-70
2021/04/11 09:38:41;;;;;;;1.30;1.30;;;16.80;81.40;;;;;;5072341;28;20480;-70
2021/04/11 09:41:50;;;;;;;1.40;1.20;;;16.90;81.10;;;;;;5072541;28;20487;-71
2021/04/11 09:44:44;;;;;;;1.23;1.20;;;17.10;80.70;;;;;;5090239;28;20456;-71
2021/04/11 09:47:33;;;;;;;1.30;1.20;;;17.20;77.90;;;;;;5091184;28;20510;-71
2021/04/11 09:50:10;;;;;;;1.20;1.10;;;17.20;78.00;;;;;;5090026;28;21075;-71
2021/04/11 09:53:10;;;;;;;1.43;1.20;;;17.30;78.60;;;;;;5092592;28;20462;-71
2021/04/11 09:55:40;;;;;;;1.30;1.30;;;17.40;77.70;;;;;;5089526;28;21001;-71
2021/04/11 09:58:50;;;;;;;1.20;1.00;;;17.70;78.30;;;;;;5092076;28;20483;-71
2021/04/11 10:01:27;;;;;;;1.73;1.40;;;17.70;78.70;;;;;;5028892;28;20483;-71
2021/04/11 10:04:13;;;;;;;1.20;1.00;;;17.80;78.50;;;;;;5078941;28;20459;-71
2021/04/11 10:06:58;;;;;;;1.20;1.00;;;17.80;78.40;;;;;;5090313;28;20464;-71
2021/04/11 10:09:51;;;;;;;1.40;1.20;;;17.90;78.10;;;;;;5089426;28;20456;-71
2021/04/11 10:12:40;;;;;;;1.20;1.00;;;17.90;76.50;;;;;;5091970;28;20462;-71
2021/04/11 10:15:17;;;;;;;1.20;1.00;;;18.00;77.90;;;;;;5088951;28;20459;-71
2021/04/11 10:18:19;;;;;;;1.40;1.03;;;18.00;75.10;;;;;;5091855;28;20546;-71
2021/04/11 10:20:57;;;;;;;1.20;1.17;;;18.00;76.60;;;;;;5079871;28;20536;-71
2021/04/11 10:23:36;;;;;;;1.30;1.10;;;18.20;77.10;;;;;;5091525;28;20456;-71
2021/04/11 10:26:06;;;;;;;1.43;1.30;;;18.30;75.20;;;;;;5088920;28;20454;-71
2021/04/11 10:28:40;;;;;;;1.87;1.17;;;18.50;77.50;;;;;;5091671;28;20466;-71
2021/04/11 10:31:16;;;;;;;1.20;1.10;;;18.60;73.40;;;;;;5088712;28;20468;-71
2021/04/11 10:33:48;;;;;;;1.40;1.10;;;18.80;73.30;;;;;;5091014;28;20509;-71
2021/04/11 10:36:23;;;;;;;1.30;1.23;;;18.80;73.20;;;;;;5088456;28;20471;-71
2021/04/11 10:38:58;;;;;;;1.20;1.13;;;18.80;74.90;;;;;;5091753;28;20451;-71
2021/04/11 10:41:40;;;;;;;2.23;1.40;;;18.70;73.00;;;;;;5091133;28;20483;-70
2021/04/11 10:44:18;;;;;;;1.23;1.17;;;18.70;72.50;;;;;;5088834;28;20464;-71
2021/04/11 10:46:59;;;;;;;1.50;1.10;;;18.80;74.00;;;;;;5091050;28;20537;-71
2021/04/11 10:49:41;;;;;;;1.20;1.10;;;18.90;74.00;;;;;;5088448;28;20456;-70
2021/04/11 10:52:36;;;;;;;1.40;1.00;;;19.10;74.80;;;;;;5091316;28;20452;-70
2021/04/11 10:55:30;;;;;;;1.30;1.20;;;19.10;73.10;;;;;;5082733;28;20470;-70
2021/04/11 10:58:25;;;;;;;1.20;1.10;;;19.30;73.80;;;;;;5091124;28;20511;-70
2021/04/11 11:01:03;;;;;;;1.60;1.30;;;19.70;73.20;;;;;;5088447;28;20479;-70
2021/04/11 11:04:06;;;;;;;1.60;1.10;;;20.10;71.60;;;;;;5091091;28;20471;-70
2021/04/11 11:06:58;;;;;;;1.30;1.10;;;20.60;70.20;;;;;;5090723;28;20483;-69
2021/04/11 11:09:30;;;;;;;1.40;1.40;;;21.00;71.60;;;;;;5088342;28;20517;-70
2021/04/11 11:12:15;;;;;;;1.40;1.10;;;21.00;70.00;;;;;;5090817;28;20525;-69
2021/04/11 11:15:13;;;;;;;1.50;1.30;;;21.30;69.70;;;;;;5088093;28;20462;-70
2021/04/11 11:17:56;;;;;;;1.30;1.20;;;21.30;68.60;;;;;;5090592;28;21019;-70
2021/04/11 11:20:32;;;;;;;1.20;1.00;;;20.90;70.00;;;;;;5088198;28;20483;-70
2021/04/11 11:23:29;;;;;;;1.50;1.23;;;20.80;69.80;;;;;;5090611;28;20977;-70
2021/04/11 11:26:10;;;;;;;1.20;1.10;;;20.60;70.00;;;;;;5088108;28;20456;-70
2021/04/11 11:29:05;;;;;;;1.50;1.50;;;20.50;70.20;;;;;;5091020;28;20463;-70
2021/04/11 11:31:45;;;;;;;1.50;1.30;;;20.80;71.40;;;;;;5090940;28;20459;-69
2021/04/11 11:34:22;;;;;;;1.20;1.10;;;21.00;71.00;;;;;;5088325;28;20498;-70
2021/04/11 11:37:01;;;;;;;2.90;1.20;;;20.80;69.60;;;;;;5090509;28;20459;-70
2021/04/11 11:39:36;;;;;;;1.40;1.20;;;20.60;71.40;;;;;;5088228;28;20459;-70
2021/04/11 11:42:14;;;;;;;1.30;1.00;;;20.50;71.20;;;;;;5090575;28;20491;-70
2021/04/11 11:44:53;;;;;;;1.30;1.20;;;20.30;71.90;;;;;;5086462;28;20946;-70
2021/04/11 11:47:26;;;;;;;1.20;1.20;;;20.20;71.10;;;;;;5094432;28;20452;-71
2021/04/11 11:50:05;;;;;;;1.37;1.10;;;20.00;71.50;;;;;;5092025;28;20455;-70
2021/04/11 11:52:40;;;;;;;1.20;1.20;;;19.90;71.90;;;;;;5094506;28;20447;-71
2021/04/11 11:55:17;;;;;;;1.20;1.00;;;19.90;71.90;;;;;;5091342;28;20462;-71
2021/04/11 11:57:51;;;;;;;2.07;1.47;;;19.70;73.00;;;;;;5094290;28;20488;-71
2021/04/11 12:00:21;;;;;;;1.37;1.20;;;19.80;72.40;;;;;;5091818;28;20942;-71
2021/04/11 12:03:03;;;;;;;2.17;1.40;;;19.80;72.50;;;;;;5094225;28;20459;-71
2021/04/11 12:05:39;;;;;;;1.77;1.20;;;19.70;73.20;;;;;;5091160;28;20464;-71
2021/04/11 12:08:15;;;;;;;1.30;1.30;;;19.70;73.50;;;;;;5094071;28;20455;-71
2021/04/11 12:10:47;;;;;;;1.47;1.17;;;19.70;72.20;;;;;;5091588;28;21034;-71
2021/04/11 12:13:28;;;;;;;1.20;1.20;;;19.70;71.70;;;;;;5094094;28;20463;-70
2021/04/11 12:15:59;;;;;;;1.40;1.30;;;19.70;71.10;;;;;;5091395;28;20471;-70
2021/04/11 12:18:30;;;;;;;1.20;1.10;;;19.60;70.80;;;;;;5094296;28;20455;-71
2021/04/11 12:21:06;;;;;;;1.20;1.10;;;19.60;71.40;;;;;;5091364;28;21153;-71
2021/04/11 12:23:40;;;;;;;1.30;1.30;;;19.60;71.50;;;;;;5094607;28;20498;-71
2021/04/11 12:26:13;;;;;;;1.67;1.33;;;19.70;71.90;;;;;;5091570;28;20930;-71
2021/04/11 12:28:43;;;;;;;1.20;1.20;;;19.80;72.30;;;;;;5094215;28;20451;-70
2021/04/11 12:31:25;;;;;;;1.30;1.20;;;20.00;71.90;;;;;;5089627;28;20942;-71
2021/04/11 12:34:03;;;;;;;1.40;1.20;;;20.30;69.90;;;;;;5094306;28;20455;-70
2021/04/11 12:36:39;;;;;;;2.10;1.20;;;20.50;71.20;;;;;;5092036;28;20464;-71
2021/04/11 12:39:12;;;;;;;1.90;1.30;;;20.80;68.70;;;;;;5092698;28;21000;-71
2021/04/11 12:41:43;;;;;;;1.70;1.43;;;21.30;67.50;;;;;;5094153;28;20841;-71
2021/04/11 12:44:17;;;;;;;2.60;1.70;;;21.50;68.50;;;;;;5091457;28;20460;-71
2021/04/11 12:46:59;;;;;;;1.43;1.30;;;21.50;67.30;;;;;;5094050;28;20458;-70
2021/04/11 12:49:30;;;;;;;1.40;1.30;;;21.40;66.90;;;;;;5091440;28;20462;-71
2021/04/11 12:52:04;;;;;;;1.50;1.27;;;21.10;67.30;;;;;;5093991;28;20516;-71
2021/04/11 12:54:35;;;;;;;1.30;1.17;;;21.00;67.90;;;;;;5091363;28;20491;-71
2021/04/11 12:57:05;;;;;;;2.27;1.43;;;20.90;67.60;;;;;;5092601;28;20836;-71
2021/04/11 12:59:39;;;;;;;1.83;1.50;;;20.80;68.10;;;;;;5090970;28;20464;-71
2021/04/11 13:02:15;;;;;;;1.40;1.20;;;20.90;69.10;;;;;;5094002;28;20533;-70
2021/04/11 13:04:46;;;;;;;1.20;1.13;;;20.90;68.00;;;;;;5091083;28;20458;-71
2021/04/11 13:07:19;;;;;;;1.47;1.43;;;20.80;71.60;;;;;;5094152;28;20513;-70
2021/04/11 13:10:00;;;;;;;1.20;1.10;;;20.80;69.50;;;;;;5091554;28;20962;-71
2021/04/11 13:12:37;;;;;;;1.20;1.10;;;20.80;68.00;;;;;;5093738;28;20455;-71
2021/04/11 13:15:13;;;;;;;1.37;1.20;;;20.60;68.50;;;;;;5091661;28;20455;-71
2021/04/11 13:17:46;;;;;;;1.30;1.20;;;20.60;69.40;;;;;;5093578;28;20471;-71
2021/04/11 13:20:18;;;;;;;1.20;1.10;;;20.30;67.80;;;;;;5090695;28;21039;-70
2021/04/11 13:22:52;;;;;;;1.30;1.07;;;20.20;68.70;;;;;;5093416;28;20994;-70
2021/04/11 13:25:32;;;;;;;1.93;1.27;;;20.20;69.20;;;;;;5089358;28;20884;-71
2021/04/11 13:28:07;;;;;;;1.20;1.10;;;20.30;69.30;;;;;;5093117;28;20456;-71
2021/04/11 13:30:38;;;;;;;1.20;1.03;;;20.50;69.40;;;;;;5090725;28;20484;-71
2021/04/11 13:33:13;;;;;;;1.37;1.30;;;20.50;70.00;;;;;;5093249;28;20517;-71
2021/04/11 13:35:45;;;;;;;1.93;1.30;;;20.30;70.90;;;;;;5089326;28;20463;-70
2021/04/11 13:38:18;;;;;;;1.77;1.50;;;20.10;70.80;;;;;;5093026;28;20455;-70
2021/04/11 13:40:45;;;;;;;1.90;1.80;;;20.00;71.00;;;;;;5090352;28;20510;-71